Time;durP1;ratioP1;P1;durP2;ratioP2;P2;SDS_P1;SDS_P2;PMS_P1;PMS_P2;Temp;Humidity;BMP_temperature;BMP_pressure;BME280_temperature;BME280_humidity;BME280_pressure;Samples;Min_cycle;Max_cycle;Signal;HPM_P1;HPM_P2
2022/11/19 00:00:22;;;;;;;;;;;;;;;9.86;100.00;99241.94;6247522;22;19911;-80
2022/11/19 00:02:49;;;;;;;;;;;;;;;10.10;100.00;99248.66;6245271;22;20295;-81
2022/11/19 00:05:14;;;;;;;;;;;;;;;10.16;100.00;99263.81;6245523;22;19980;-82
2022/11/19 00:07:40;;;;;;;;;;;;;;;10.13;100.00;99258.88;6291513;22;19895;-80
2022/11/19 00:10:06;;;;;;;;;;;;;;;10.29;100.00;99261.28;6263885;22;19933;-82
2022/11/19 00:15:20;;;;;;;;;;;;;;;10.32;100.00;99258.25;6262519;22;19915;-82
2022/11/19 00:17:48;;;;;;;;;;;;;;;10.48;100.00;99268.56;6241817;22;19911;-81
2022/11/19 00:20:20;;;;;;;;;;;;;;;10.56;100.00;99271.09;6265693;22;19915;-82
2022/11/19 00:22:52;;;;;;;;;;;;;;;10.66;100.00;99276.06;6240700;22;19922;-81
2022/11/19 00:25:19;;;;;;;;;;;;;;;10.59;100.00;99270.72;6292265;22;19911;-82
2022/11/19 00:27:44;;;;;;;;;;;;;;;10.52;100.00;99264.53;6242590;22;19911;-82
2022/11/19 00:30:11;;;;;;;;;;;;;;;10.42;100.00;99269.34;6297034;22;19914;-81
2022/11/19 00:32:40;;;;;;;;;;;;;;;10.39;100.00;99269.72;6219115;22;19918;-79
2022/11/19 00:35:06;;;;;;;;;;;;;;;10.05;100.00;99282.81;6268871;22;19922;-80
2022/11/19 00:37:31;;;;;;;;;;;;;;;9.95;100.00;99292.91;6278412;22;19915;-81
2022/11/19 00:39:57;;;;;;;;;;;;;;;9.91;100.00;99297.75;6278393;22;19911;-80
2022/11/19 00:42:26;;;;;;;;;;;;;;;9.99;100.00;99302.09;6278448;22;20333;-82
2022/11/19 00:44:51;;;;;;;;;;;;;;;9.69;100.00;99312.78;6280024;22;19940;-81
2022/11/19 00:47:16;;;;;;;;;;;;;;;9.69;100.00;99315.41;6280933;22;20006;-81
2022/11/19 00:49:42;;;;;;;;;;;;;;;9.68;100.00;99319.06;6288928;22;19939;-82
2022/11/19 00:52:07;;;;;;;;;;;;;;;9.76;100.00;99321.63;6279972;22;20388;-82
2022/11/19 00:54:33;;;;;;;;;;;;;;;9.61;100.00;99334.03;6280661;22;19985;-81
2022/11/19 00:56:58;;;;;;;;;;;;;;;9.75;100.00;99330.56;6284089;22;20246;-81
2022/11/19 00:59:24;;;;;;;;;;;;;;;9.71;100.00;99329.28;6248303;22;19915;-81
2022/11/19 01:01:49;;;;;;;;;;;;;;;9.40;100.00;99331.34;6303781;22;19945;-80
2022/11/19 01:04:21;;;;;;;;;;;;;;;9.61;100.00;99344.63;6300496;22;19934;-82
2022/11/19 01:06:47;;;;;;;;;;;;;;;9.45;100.00;99342.16;6271029;22;19918;-81
2022/11/19 01:09:13;;;;;;;;;;;;;;;9.19;100.00;99340.00;6268038;22;19907;-81
2022/11/19 01:11:38;;;;;;;;;;;;;;;9.08;100.00;99352.84;6224581;22;19915;-80
2022/11/19 01:14:07;;;;;;;;;;;;;;;9.00;100.00;99342.34;6260192;22;19915;-82
2022/11/19 01:16:42;;;;;;;;;;;;;;;9.25;100.00;99349.00;6281738;22;19964;-81
2022/11/19 01:19:09;;;;;;;;;;;;;;;9.26;100.00;99351.47;6279690;22;19915;-81
2022/11/19 01:21:35;;;;;;;;;;;;;;;9.33;100.00;99352.41;6252902;22;19907;-82
2022/11/19 01:24:01;;;;;;;;;;;;;;;9.29;100.00;99368.81;6279891;22;20323;-81
2022/11/19 01:26:27;;;;;;;;;;;;;;;9.37;100.00;99368.72;6279789;22;19911;-81
2022/11/19 01:28:52;;;;;;;;;;;;;;;9.50;100.00;99363.63;6281620;22;19947;-81
2022/11/19 01:31:19;;;;;;;;;;;;;;;9.53;100.00;99368.53;6279836;22;19935;-82
2022/11/19 01:33:44;;;;;;;;;;;;;;;9.47;100.00;99371.91;6279732;22;19945;-83
2022/11/19 01:36:11;;;;;;;;;;;;;;;9.61;100.00;99359.69;6280055;22;19911;-81
2022/11/19 01:38:37;;;;;;;;;;;;;;;9.72;100.00;99362.66;6280297;22;19982;-82
2022/11/19 01:41:03;;;;;;;;;;;;;;;9.71;100.00;99361.03;6253501;22;19988;-83
2022/11/19 01:43:43;;;;;;;;;;;;;;;9.52;100.00;99366.06;6280206;22;19950;-82
2022/11/19 01:46:10;;;;;;;;;;;;;;;9.55;100.00;99366.50;6280041;22;19994;-83
2022/11/19 01:48:38;;;;;;;;;;;;;;;9.32;100.00;99373.72;6252697;22;19967;-82
2022/11/19 01:51:08;;;;;;;;;;;;;;;9.29;100.00;99372.28;6280700;22;20379;-81
2022/11/19 01:53:35;;;;;;;;;;;;;;;9.29;100.00;99374.09;6227786;22;19922;-82
2022/11/19 01:56:02;;;;;;;;;;;;;;;9.11;100.00;99374.47;6279546;22;19915;-82
2022/11/19 01:58:30;;;;;;;;;;;;;;;8.87;100.00;99387.06;6280977;22;19986;-82
2022/11/19 02:00:55;;;;;;;;;;;;;;;8.88;100.00;99378.97;6279954;22;19911;-84
2022/11/19 02:03:21;;;;;;;;;;;;;;;8.63;100.00;99381.00;6280073;22;20387;-85
2022/11/19 02:05:47;;;;;;;;;;;;;;;8.64;100.00;99377.38;6252981;22;19912;-83
2022/11/19 02:08:31;;;;;;;;;;;;;;;8.75;100.00;99374.28;6279619;22;19907;-83
2022/11/19 02:11:03;;;;;;;;;;;;;;;8.77;100.00;99364.38;6253013;22;19918;-81
2022/11/19 02:13:34;;;;;;;;;;;;;;;9.02;100.00;99364.94;6279977;22;20342;-82
2022/11/19 02:16:07;;;;;;;;;;;;;;;8.85;100.00;99368.75;6280787;22;20361;-83
2022/11/19 02:18:34;;;;;;;;;;;;;;;8.48;100.00;99369.56;6261640;22;19914;-82
2022/11/19 02:21:13;;;;;;;;;;;;;;;8.56;100.00;99364.22;6288157;22;20318;-82
2022/11/19 02:23:38;;;;;;;;;;;;;;;8.66;100.00;99370.06;6296483;22;19915;-82
2022/11/19 02:26:16;;;;;;;;;;;;;;;8.60;100.00;99370.78;6301813;22;19933;-81
2022/11/19 02:28:49;;;;;;;;;;;;;;;8.29;100.00;99373.47;6302016;22;19957;-82
2022/11/19 02:31:14;;;;;;;;;;;;;;;8.03;100.00;99366.84;6291330;22;19938;-82
2022/11/19 02:33:42;;;;;;;;;;;;;;;8.25;100.00;99366.06;6280883;22;19957;-82
2022/11/19 02:36:26;;;;;;;;;;;;;;;8.07;100.00;99366.34;6280950;22;20240;-82
2022/11/19 02:39:10;;;;;;;;;;;;;;;8.32;100.00;99367.03;6282865;22;19907;-81
2022/11/19 02:41:59;;;;;;;;;;;;;;;8.45;100.00;99369.91;6280126;22;20005;-81
2022/11/19 02:47:17;;;;;;;;;;;;;;;8.39;100.00;99378.53;6279359;22;19915;-83
2022/11/19 02:49:43;;;;;;;;;;;;;;;8.18;100.00;99376.50;6279846;22;19940;-83
2022/11/19 02:52:10;;;;;;;;;;;;;;;8.40;100.00;99377.53;6280147;22;19911;-82
2022/11/19 02:54:35;;;;;;;;;;;;;;;8.31;100.00;99375.97;6279210;22;19981;-82
2022/11/19 02:57:01;;;;;;;;;;;;;;;8.18;100.00;99371.25;6279682;22;19915;-83
2022/11/19 03:05:04;;;;;;;;;;;;;;;7.77;100.00;99373.28;6279191;22;19997;-84
2022/11/19 03:07:29;;;;;;;;;;;;;;;7.82;100.00;99376.19;6280614;22;19907;-84
2022/11/19 03:09:56;;;;;;;;;;;;;;;7.79;100.00;99381.81;6279803;22;20345;-84
2022/11/19 03:12:26;;;;;;;;;;;;;;;7.96;100.00;99397.56;6278846;22;19911;-83
2022/11/19 03:17:59;;;;;;;;;;;;;;;8.26;100.00;99392.28;6279396;22;19911;-83
2022/11/19 03:20:42;;;;;;;;;;;;;;;8.09;100.00;99392.53;6279311;22;19915;-82
2022/11/19 03:23:10;;;;;;;;;;;;;;;8.20;100.00;99381.59;6278458;22;20326;-83
2022/11/19 03:25:39;;;;;;;;;;;;;;;8.09;100.00;99384.63;6278319;22;19946;-82
2022/11/19 03:28:08;;;;;;;;;;;;;;;8.10;100.00;99399.47;6278390;22;19918;-83
2022/11/19 03:30:35;;;;;;;;;;;;;;;8.12;100.00;99397.50;6279982;22;19934;-84
2022/11/19 03:33:07;;;;;;;;;;;;;;;7.66;100.00;99407.91;6278821;22;19911;-85
2022/11/19 03:35:41;;;;;;;;;;;;;;;7.22;100.00;99404.91;6278653;22;20000;-84
2022/11/19 03:38:10;;;;;;;;;;;;;;;7.10;100.00;99397.53;6279751;22;19911;-85
2022/11/19 03:40:36;;;;;;;;;;;;;;;7.22;100.00;99389.09;6251729;22;19915;-83
2022/11/19 03:43:04;;;;;;;;;;;;;;;7.25;100.00;99380.88;6278110;22;19997;-85
2022/11/19 03:45:33;;;;;;;;;;;;;;;7.44;100.00;99370.94;6278511;22;19913;-83
2022/11/19 03:48:00;;;;;;;;;;;;;;;7.34;100.00;99368.50;6280271;22;19907;-84
2022/11/19 03:50:28;;;;;;;;;;;;;;;7.49;100.00;99369.41;6278574;22;19915;-85
2022/11/19 03:52:54;;;;;;;;;;;;;;;7.49;100.00;99374.69;6251802;22;19926;-83
2022/11/19 03:55:23;;;;;;;;;;;;;;;7.58;100.00;99368.41;6277900;22;19911;-84
2022/11/19 03:57:49;;;;;;;;;;;;;;;7.76;100.00;99355.78;6278643;22;19907;-83
2022/11/19 04:00:15;;;;;;;;;;;;;;;7.72;100.00;99357.13;6251109;22;19946;-85
2022/11/19 04:02:40;;;;;;;;;;;;;;;7.82;100.00;99353.47;6280432;22;19918;-85
2022/11/19 04:05:06;;;;;;;;;;;;;;;8.01;100.00;99353.84;6280289;22;19911;-84
2022/11/19 04:07:32;;;;;;;;;;;;;;;7.67;100.00;99356.84;6253137;22;19915;-84
2022/11/19 04:09:57;;;;;;;;;;;;;;;7.51;100.00;99364.81;6278770;22;19918;-83
2022/11/19 04:12:23;;;;;;;;;;;;;;;7.58;100.00;99378.97;6278617;22;19911;-85
2022/11/19 04:14:49;;;;;;;;;;;;;;;7.53;100.00;99393.63;6251217;22;20341;-84
2022/11/19 04:17:15;;;;;;;;;;;;;;;7.24;100.00;99396.84;6278899;22;19915;-84
2022/11/19 04:19:40;;;;;;;;;;;;;;;7.04;100.00;99395.56;6281681;22;19915;-85
2022/11/19 04:22:06;;;;;;;;;;;;;;;7.17;100.00;99395.88;6280680;22;19917;-83
2022/11/19 04:24:31;;;;;;;;;;;;;;;7.07;100.00;99389.97;6277929;22;20246;-83
2022/11/19 04:26:57;;;;;;;;;;;;;;;6.84;100.00;99394.25;6278337;22;20327;-84
2022/11/19 04:29:22;;;;;;;;;;;;;;;6.72;100.00;99402.53;6278454;22;20333;-84
2022/11/19 04:31:51;;;;;;;;;;;;;;;6.60;100.00;99398.53;6279615;22;19918;-84
2022/11/19 04:34:16;;;;;;;;;;;;;;;6.53;100.00;99394.13;6278386;22;19911;-83
2022/11/19 04:36:41;;;;;;;;;;;;;;;6.71;100.00;99406.13;6277718;22;19990;-82
2022/11/19 04:39:08;;;;;;;;;;;;;;;6.66;100.00;99408.41;6278444;22;19946;-84
2022/11/19 04:41:33;;;;;;;;;;;;;;;6.78;100.00;99419.47;6278272;22;19930;-82
2022/11/19 04:43:59;;;;;;;;;;;;;;;6.71;100.00;99426.38;6278668;22;19911;-82
2022/11/19 04:46:24;;;;;;;;;;;;;;;6.66;100.00;99424.22;6278584;22;20334;-84
2022/11/19 04:48:50;;;;;;;;;;;;;;;6.74;100.00;99418.97;6278380;22;19941;-82
2022/11/19 04:51:15;;;;;;;;;;;;;;;6.82;100.00;99423.41;6278804;22;19911;-82
2022/11/19 04:53:40;;;;;;;;;;;;;;;6.70;100.00;99435.25;6251282;22;19986;-83
2022/11/19 04:56:06;;;;;;;;;;;;;;;6.56;100.00;99431.44;6277573;22;19919;-82
2022/11/19 04:58:32;;;;;;;;;;;;;;;6.74;100.00;99432.13;6277747;22;20341;-83
2022/11/19 05:00:57;;;;;;;;;;;;;;;6.81;100.00;99424.41;6278254;22;19913;-85
2022/11/19 05:03:23;;;;;;;;;;;;;;;6.93;100.00;99425.69;6278337;22;20349;-83
2022/11/19 05:05:48;;;;;;;;;;;;;;;7.05;100.00;99423.56;6278225;22;19918;-83
2022/11/19 05:08:14;;;;;;;;;;;;;;;6.91;100.00;99426.84;6251154;22;20357;-85
2022/11/19 05:10:39;;;;;;;;;;;;;;;6.91;100.00;99425.06;6278877;22;19992;-85
2022/11/19 05:13:04;;;;;;;;;;;;;;;6.90;100.00;99430.47;6278593;22;19911;-83
2022/11/19 05:15:30;;;;;;;;;;;;;;;6.72;100.00;99434.13;6278633;22;19921;-82
2022/11/19 05:17:55;;;;;;;;;;;;;;;6.55;100.00;99426.34;6278111;22;19918;-83
2022/11/19 05:20:20;;;;;;;;;;;;;;;6.45;100.00;99423.06;6278961;22;20345;-85
2022/11/19 05:22:46;;;;;;;;;;;;;;;6.30;100.00;99417.59;6278122;22;19911;-85
2022/11/19 05:25:11;;;;;;;;;;;;;;;6.41;100.00;99414.66;6279427;22;19915;-83
2022/11/19 05:27:37;;;;;;;;;;;;;;;6.40;100.00;99410.38;6283159;22;20236;-83
2022/11/19 05:30:03;;;;;;;;;;;;;;;6.11;100.00;99425.78;6284593;22;19915;-84
2022/11/19 05:32:29;;;;;;;;;;;;;;;6.05;100.00;99431.69;6282636;22;19912;-84
2022/11/19 05:34:54;;;;;;;;;;;;;;;6.04;100.00;99437.91;6283378;22;19918;-84
2022/11/19 05:37:20;;;;;;;;;;;;;;;5.98;100.00;99433.28;6282008;22;20281;-83
2022/11/19 05:39:45;;;;;;;;;;;;;;;6.10;100.00;99434.63;6283823;22;20257;-83
2022/11/19 05:42:10;;;;;;;;;;;;;;;6.10;100.00;99429.38;6255080;22;19915;-84
2022/11/19 05:44:36;;;;;;;;;;;;;;;6.13;100.00;99431.72;6283157;22;19918;-84
2022/11/19 05:47:01;;;;;;;;;;;;;;;6.22;100.00;99425.47;6281624;22;20001;-83
2022/11/19 05:49:26;;;;;;;;;;;;;;;6.46;100.00;99432.59;6253098;22;19915;-83
2022/11/19 05:51:52;;;;;;;;;;;;;;;6.67;100.00;99431.13;6252838;22;19982;-83
2022/11/19 05:54:17;;;;;;;;;;;;;;;6.60;100.00;99431.94;6279807;22;20254;-83
2022/11/19 05:56:43;;;;;;;;;;;;;;;6.66;100.00;99439.22;6279720;22;19911;-83
2022/11/19 05:59:08;;;;;;;;;;;;;;;6.73;100.00;99430.47;6253232;22;19972;-81
2022/11/19 06:01:34;;;;;;;;;;;;;;;6.93;100.00;99435.41;6252612;22;19959;-84
2022/11/19 06:03:59;;;;;;;;;;;;;;;7.02;100.00;99435.25;6279611;22;19934;-82
2022/11/19 06:06:25;;;;;;;;;;;;;;;6.80;100.00;99442.97;6252721;22;20341;-85
2022/11/19 06:08:50;;;;;;;;;;;;;;;6.60;100.00;99442.47;6253349;22;19915;-83
2022/11/19 06:14:00;;;;;;;;;;;;;;;6.73;100.00;99455.97;6279502;22;19926;-82
2022/11/19 06:16:26;;;;;;;;;;;;;;;6.80;100.00;99464.03;6279182;22;19911;-84
2022/11/19 06:18:52;;;;;;;;;;;;;;;6.93;100.00;99461.75;6277792;22;19990;-83
2022/11/19 06:21:17;;;;;;;;;;;;;;;6.76;100.00;99461.75;6278115;22;20191;-82
2022/11/19 06:23:43;;;;;;;;;;;;;;;6.83;100.00;99467.16;6278875;22;19998;-82
2022/11/19 06:26:09;;;;;;;;;;;;;;;6.79;100.00;99475.59;6281246;22;19907;-86
2022/11/19 06:28:34;;;;;;;;;;;;;;;6.61;100.00;99473.91;6280110;22;19911;-86
2022/11/19 06:31:00;;;;;;;;;;;;;;;6.50;100.00;99466.31;6279252;22;19943;-85
2022/11/19 06:33:26;;;;;;;;;;;;;;;6.36;100.00;99458.25;6278132;22;19911;-87
2022/11/19 06:35:51;;;;;;;;;;;;;;;6.28;100.00;99464.31;6250723;22;19961;-86
2022/11/19 06:38:16;;;;;;;;;;;;;;;6.46;100.00;99459.75;6278096;22;19942;-85
2022/11/19 06:40:44;;;;;;;;;;;;;;;6.87;100.00;99467.66;6278133;22;19937;-86
2022/11/19 06:43:10;;;;;;;;;;;;;;;6.83;100.00;99467.16;6277751;22;19907;-83
2022/11/19 06:45:35;;;;;;;;;;;;;;;6.94;100.00;99473.94;6250929;22;19915;-82
2022/11/19 06:48:01;;;;;;;;;;;;;;;7.17;100.00;99477.56;6278363;22;19922;-81
2022/11/19 06:50:26;;;;;;;;;;;;;;;7.18;100.00;99479.22;6278719;22;20327;-83
2022/11/19 06:52:51;;;;;;;;;;;;;;;7.24;100.00;99478.53;6264474;22;19899;-82
2022/11/19 06:55:17;;;;;;;;;;;;;;;7.18;100.00;99481.84;6288812;22;20289;-82
2022/11/19 06:57:42;;;;;;;;;;;;;;;7.22;100.00;99488.44;6251169;22;19925;-81
2022/11/19 07:00:08;;;;;;;;;;;;;;;7.27;100.00;99500.13;6279310;22;19915;-82
2022/11/19 07:02:33;;;;;;;;;;;;;;;7.19;100.00;99505.38;6278585;22;19911;-84
2022/11/19 07:04:59;;;;;;;;;;;;;;;7.29;100.00;99507.88;6284958;22;19911;-82
2022/11/19 07:07:24;;;;;;;;;;;;;;;7.22;100.00;99512.16;6285037;22;20038;-83
2022/11/19 07:09:49;;;;;;;;;;;;;;;7.02;100.00;99516.09;6293066;22;19918;-82
2022/11/19 07:12:15;;;;;;;;;;;;;;;7.18;100.00;99519.56;6294600;22;19911;-81
2022/11/19 07:14:40;;;;;;;;;;;;;;;7.19;100.00;99523.03;6293186;22;19932;-82
2022/11/19 07:17:06;;;;;;;;;;;;;;;7.04;100.00;99532.53;6287756;22;20277;-81
2022/11/19 07:19:31;;;;;;;;;;;;;;;6.85;100.00;99538.97;6279601;22;20227;-82
2022/11/19 07:21:56;;;;;;;;;;;;;;;7.01;100.00;99543.41;6279211;22;19911;-85
2022/11/19 07:24:22;;;;;;;;;;;;;;;6.92;100.00;99542.59;6278365;22;19911;-81
2022/11/19 07:26:47;;;;;;;;;;;;;;;6.89;100.00;99555.25;6278210;22;20224;-82
2022/11/19 07:29:13;;;;;;;;;;;;;;;7.01;100.00;99556.59;6250653;22;19907;-84
2022/11/19 07:31:39;;;;;;;;;;;;;;;7.00;100.00;99562.84;6250919;22;19957;-84
2022/11/19 07:34:06;;;;;;;;;;;;;;;6.91;100.00;99569.91;6292488;22;19931;-83
2022/11/19 07:36:31;;;;;;;;;;;;;;;6.88;100.00;99562.34;6262898;22;20373;-85
2022/11/19 07:38:56;;;;;;;;;;;;;;;6.89;100.00;99568.44;6279176;22;19911;-82
2022/11/19 07:44:07;;;;;;;;;;;;;;;7.02;100.00;99571.41;6277345;22;20002;-85
2022/11/19 07:46:32;;;;;;;;;;;;;;;7.04;100.00;99567.63;6277679;22;19938;-85
2022/11/19 07:48:58;;;;;;;;;;;;;;;6.98;100.00;99572.72;6277901;22;19975;-86
2022/11/19 07:51:23;;;;;;;;;;;;;;;6.87;100.00;99565.94;6277865;22;19957;-84
2022/11/19 07:53:49;;;;;;;;;;;;;;;7.15;100.00;99566.50;6279447;22;19907;-83
2022/11/19 07:56:15;;;;;;;;;;;;;;;7.20;100.00;99564.16;6277374;22;19911;-83
2022/11/19 07:58:40;;;;;;;;;;;;;;;7.19;100.00;99562.53;6277322;22;19911;-83
2022/11/19 08:01:10;;;;;;;;;;;;;;;7.15;100.00;99558.59;6277131;22;19911;-85
2022/11/19 08:03:36;;;;;;;;;;;;;;;7.17;100.00;99559.22;6277765;22;19915;-87
2022/11/19 08:06:03;;;;;;;;;;;;;;;7.00;100.00;99563.66;6277392;22;20255;-83
2022/11/19 08:08:29;;;;;;;;;;;;;;;6.98;100.00;99575.34;6250375;22;19961;-85
2022/11/19 08:10:54;;;;;;;;;;;;;;;7.01;100.00;99581.13;6250432;22;20304;-81
2022/11/19 08:13:19;;;;;;;;;;;;;;;7.17;100.00;99580.31;6249950;22;19938;-81
2022/11/19 08:15:45;;;;;;;;;;;;;;;7.15;100.00;99582.28;6279406;22;19955;-82
2022/11/19 08:18:14;;;;;;;;;;;;;;;7.30;100.00;99578.00;6284489;22;20227;-83
2022/11/19 08:20:41;;;;;;;;;;;;;;;7.39;100.00;99584.94;6287428;22;20314;-79
2022/11/19 08:23:06;;;;;;;;;;;;;;;7.37;100.00;99586.91;6276965;22;19965;-82
2022/11/19 08:25:32;;;;;;;;;;;;;;;7.32;100.00;99588.41;6277456;22;19907;-82
2022/11/19 08:27:58;;;;;;;;;;;;;;;7.33;100.00;99598.75;6249962;22;19938;-83
2022/11/19 08:30:23;;;;;;;;;;;;;;;7.45;100.00;99597.47;6277371;22;19964;-85
2022/11/19 08:32:48;;;;;;;;;;;;;;;7.57;100.00;99596.16;6276856;22;20326;-81
2022/11/19 08:35:14;;;;;;;;;;;;;;;7.52;100.00;99601.09;6280550;22;19915;-87
2022/11/19 08:37:39;;;;;;;;;;;;;;;7.46;100.00;99603.53;6288148;22;19957;-84
2022/11/19 08:40:05;;;;;;;;;;;;;;;7.59;100.00;99602.06;6252452;22;19965;-82
2022/11/19 08:45:14;;;;;;;;;;;;;;;7.36;100.00;99603.72;6250447;22;19956;-83
2022/11/19 08:47:40;;;;;;;;;;;;;;;7.43;100.00;99604.72;6277403;22;19911;-83
2022/11/19 08:50:05;;;;;;;;;;;;;;;7.37;100.00;99608.00;6277518;22;19911;-81
2022/11/19 08:52:31;;;;;;;;;;;;;;;7.39;100.00;99610.50;6275914;22;19939;-81
2022/11/19 08:54:56;;;;;;;;;;;;;;;7.47;100.00;99608.66;6277335;22;19915;-81
2022/11/19 08:57:21;;;;;;;;;;;;;;;7.52;100.00;99616.09;6277327;22;19921;-83
2022/11/19 08:59:47;;;;;;;;;;;;;;;7.57;100.00;99619.03;6276980;22;19911;-81
2022/11/19 09:02:12;;;;;;;;;;;;;;;7.64;100.00;99630.59;6276825;22;19918;-82
2022/11/19 09:04:38;;;;;;;;;;;;;;;7.83;100.00;99632.88;6277068;22;20330;-81
2022/11/19 09:07:06;;;;;;;;;;;;;;;7.82;100.00;99639.97;6278880;22;20301;-82
2022/11/19 09:09:31;;;;;;;;;;;;;;;7.90;100.00;99636.50;6279812;22;19953;-82
2022/11/19 09:11:57;;;;;;;;;;;;;;;8.08;100.00;99633.69;6279832;22;19973;-79
2022/11/19 09:14:22;;;;;;;;;;;;;;;8.25;100.00;99630.81;6278691;22;19910;-80
2022/11/19 09:16:47;;;;;;;;;;;;;;;8.18;100.00;99631.69;6278837;22;19964;-82
2022/11/19 09:19:13;;;;;;;;;;;;;;;8.06;100.00;99635.66;6278649;22;19919;-80
2022/11/19 09:21:38;;;;;;;;;;;;;;;8.07;100.00;99632.03;6278657;22;19911;-82
2022/11/19 09:24:04;;;;;;;;;;;;;;;8.09;100.00;99635.31;6278465;22;20182;-82
2022/11/19 09:26:29;;;;;;;;;;;;;;;8.03;100.00;99633.34;6278599;22;19911;-83
2022/11/19 09:28:54;;;;;;;;;;;;;;;7.96;100.00;99635.00;6278365;22;19911;-80
2022/11/19 09:31:20;;;;;;;;;;;;;;;8.05;100.00;99639.31;6278632;22;20284;-82
2022/11/19 09:33:47;;;;;;;;;;;;;;;8.23;100.00;99647.84;6278961;22;20097;-81
2022/11/19 09:36:13;;;;;;;;;;;;;;;8.25;100.00;99640.59;6278637;22;19962;-80
2022/11/19 09:38:39;;;;;;;;;;;;;;;8.36;100.00;99645.53;6278616;22;19911;-80
2022/11/19 09:41:20;;;;;;;;;;;;;;;8.37;100.00;99644.53;6280467;22;19953;-82
2022/11/19 09:43:55;;;;;;;;;;;;;;;8.44;100.00;99656.06;6290463;22;19915;-78
2022/11/19 09:46:32;;;;;;;;;;;;;;;8.31;100.00;99655.78;6284860;22;19918;-82
2022/11/19 09:49:01;;;;;;;;;;;;;;;8.40;100.00;99654.75;6250658;22;20242;-81
2022/11/19 09:51:29;;;;;;;;;;;;;;;8.44;100.00;99660.53;6278520;22;20354;-80
2022/11/19 09:53:57;;;;;;;;;;;;;;;8.62;100.00;99654.00;6278697;22;19986;-79
2022/11/19 09:56:34;;;;;;;;;;;;;;;8.68;100.00;99657.81;6278446;22;19911;-79
2022/11/19 09:59:01;;;;;;;;;;;;;;;8.55;100.00;99666.25;6279300;22;19907;-82
2022/11/19 10:01:29;;;;;;;;;;;;;;;8.70;100.00;99661.09;6278703;22;19911;-80
2022/11/19 10:03:54;;;;;;;;;;;;;;;8.65;100.00;99656.31;6278322;22;20403;-81
2022/11/19 10:06:27;;;;;;;;;;;;;;;8.87;100.00;99648.63;6278423;22;19919;-80
2022/11/19 10:09:02;;;;;;;;;;;;;;;8.75;100.00;99643.72;6278554;22;19959;-82
2022/11/19 10:11:39;;;;;;;;;;;;;;;8.54;100.00;99640.84;6278151;22;19911;-81
2022/11/19 10:14:11;;;;;;;;;;;;;;;8.49;100.00;99635.25;6278038;22;19918;-81
2022/11/19 10:16:50;;;;;;;;;;;;;;;8.52;100.00;99632.25;6278360;22;20246;-82
2022/11/19 10:19:35;;;;;;;;;;;;;;;8.49;100.00;99624.69;6279256;22;19922;-79
2022/11/19 10:22:00;;;;;;;;;;;;;;;8.52;100.00;99624.34;6278367;22;19911;-81
2022/11/19 10:24:25;;;;;;;;;;;;;;;8.55;100.00;99620.56;6277972;22;19911;-78
2022/11/19 10:26:58;;;;;;;;;;;;;;;8.60;100.00;99624.31;6251030;22;19938;-79
2022/11/19 10:29:27;;;;;;;;;;;;;;;8.69;100.00;99631.22;6277770;22;19934;-82
2022/11/19 10:31:52;;;;;;;;;;;;;;;8.82;100.00;99630.66;6276918;22;20006;-80
2022/11/19 10:34:29;;;;;;;;;;;;;;;8.83;100.00;99619.94;6277901;22;20339;-82
2022/11/19 10:37:09;;;;;;;;;;;;;;;8.90;100.00;99624.50;6278891;22;19911;-81
2022/11/19 10:39:55;;;;;;;;;;;;;;;8.94;100.00;99609.97;6251479;22;20282;-84
2022/11/19 10:42:31;;;;;;;;;;;;;;;9.00;100.00;99609.25;6276866;22;20220;-82
2022/11/19 10:45:05;;;;;;;;;;;;;;;8.83;100.00;99604.06;6278974;22;19911;-84
2022/11/19 10:47:46;;;;;;;;;;;;;;;8.92;100.00;99596.91;6278363;22;19911;-82
2022/11/19 10:50:22;;;;;;;;;;;;;;;9.03;100.00;99591.25;6284576;22;20014;-89
2022/11/19 10:53:12;;;;;;;;;;;;;;;8.94;100.00;99583.53;6252251;22;19951;-89
2022/11/19 10:55:44;;;;;;;;;;;;;;;9.02;100.00;99580.81;6222882;22;19912;-86
2022/11/19 10:58:09;;;;;;;;;;;;;;;9.00;100.00;99574.91;6279615;22;19911;-87
2022/11/19 11:00:35;;;;;;;;;;;;;;;8.98;100.00;99564.50;6263462;22;19932;-86
2022/11/19 11:03:03;;;;;;;;;;;;;;;9.02;100.00;99563.16;6287898;22;20246;-83
2022/11/19 11:05:51;;;;;;;;;;;;;;;9.09;100.00;99561.47;6282425;22;19934;-81
2022/11/19 11:08:17;;;;;;;;;;;;;;;9.09;100.00;99558.81;6296292;22;19969;-83
2022/11/19 11:10:45;;;;;;;;;;;;;;;9.12;100.00;99555.00;6302041;22;19930;-84
2022/11/19 11:16:06;;;;;;;;;;;;;;;9.17;100.00;99552.66;6286037;22;19978;-82
2022/11/19 11:18:32;;;;;;;;;;;;;;;9.16;100.00;99549.19;6282486;22;19985;-86
2022/11/19 11:20:58;;;;;;;;;;;;;;;9.19;100.00;99551.47;6279206;22;19922;-85
2022/11/19 11:23:25;;;;;;;;;;;;;;;9.20;100.00;99554.94;6277488;22;19950;-85
2022/11/19 11:26:02;;;;;;;;;;;;;;;9.26;100.00;99544.47;6277446;22;19911;-83
2022/11/19 11:28:28;;;;;;;;;;;;;;;9.21;100.00;99538.09;6277004;22;19913;-82
2022/11/19 11:30:53;;;;;;;;;;;;;;;9.25;100.00;99542.00;6277399;22;19989;-82
2022/11/19 11:33:37;;;;;;;;;;;;;;;9.20;100.00;99531.16;6277192;22;19907;-83
2022/11/19 11:36:05;;;;;;;;;;;;;;;9.13;100.00;99519.63;6243229;22;20296;-83
2022/11/19 11:38:52;;;;;;;;;;;;;;;9.18;100.00;99514.66;6282680;22;19907;-83
2022/11/19 11:41:37;;;;;;;;;;;;;;;9.24;100.00;99511.31;6289735;22;19915;-84
2022/11/19 11:44:14;;;;;;;;;;;;;;;9.26;100.00;99496.06;6278105;22;20353;-86
2022/11/19 11:47:05;;;;;;;;;;;;;;;9.33;100.00;99495.19;6270768;22;19926;-83
2022/11/19 11:49:31;;;;;;;;;;;;;;;9.34;100.00;99494.19;6277995;22;19914;-81
2022/11/19 11:52:01;;;;;;;;;;;;;;;9.35;100.00;99487.06;6279941;22;19930;-84
2022/11/19 11:54:26;;;;;;;;;;;;;;;9.42;100.00;99490.63;6280799;22;20384;-84
2022/11/19 11:56:51;;;;;;;;;;;;;;;9.34;100.00;99493.38;6281579;22;19918;-83
2022/11/19 11:59:20;;;;;;;;;;;;;;;9.30;100.00;99481.50;6295091;22;19962;-81
2022/11/19 12:01:52;;;;;;;;;;;;;;;9.27;100.00;99479.22;6297944;22;19912;-81
2022/11/19 12:04:18;;;;;;;;;;;;;;;9.25;100.00;99475.91;6297604;22;19918;-84
2022/11/19 12:06:50;;;;;;;;;;;;;;;9.24;100.00;99476.94;6267773;22;19931;-84
2022/11/19 12:09:15;;;;;;;;;;;;;;;9.27;100.00;99466.00;6284044;22;19911;-85
2022/11/19 12:11:55;;;;;;;;;;;;;;;9.33;100.00;99465.28;6279695;22;19922;-85
2022/11/19 12:14:20;;;;;;;;;;;;;;;9.35;100.00;99460.63;6279454;22;19957;-83
2022/11/19 12:16:54;;;;;;;;;;;;;;;9.43;100.00;99459.72;6279446;22;19911;-84
2022/11/19 12:19:43;;;;;;;;;;;;;;;9.46;100.00;99464.66;6278901;22;19997;-82
2022/11/19 12:22:16;;;;;;;;;;;;;;;9.45;100.00;99466.47;6215647;22;19985;-84
2022/11/19 12:24:41;;;;;;;;;;;;;;;9.37;100.00;99471.84;6280153;22;20085;-84
2022/11/19 12:27:17;;;;;;;;;;;;;;;9.28;100.00;99475.56;6279873;22;19911;-81
2022/11/19 12:29:56;;;;;;;;;;;;;;;9.25;100.00;99465.34;6280791;22;20003;-84
2022/11/19 12:32:40;;;;;;;;;;;;;;;9.28;100.00;99472.91;6286248;22;19915;-82
2022/11/19 12:35:09;;;;;;;;;;;;;;;9.35;100.00;99466.72;6299906;22;19911;-83
2022/11/19 12:37:40;;;;;;;;;;;;;;;9.39;100.00;99469.84;6264375;22;20354;-83
2022/11/19 12:40:24;;;;;;;;;;;;;;;9.29;100.00;99470.09;6290290;22;19911;-85
2022/11/19 12:43:05;;;;;;;;;;;;;;;9.29;100.00;99461.34;6285573;22;19911;-84
2022/11/19 12:45:35;;;;;;;;;;;;;;;9.48;100.00;99450.22;6261957;22;19986;-83
2022/11/19 12:48:20;;;;;;;;;;;;;;;9.37;100.00;99445.41;6260420;22;19918;-84
2022/11/19 12:50:51;;;;;;;;;;;;;;;9.38;100.00;99439.09;6287552;22;19976;-82
2022/11/19 12:53:32;;;;;;;;;;;;;;;9.47;100.00;99438.03;6285693;22;20254;-82
2022/11/19 12:56:03;;;;;;;;;;;;;;;9.45;100.00;99434.72;6282897;22;19919;-83
2022/11/19 12:58:47;;;;;;;;;;;;;;;9.45;100.00;99440.03;6282697;22;19953;-82
2022/11/19 13:01:18;;;;;;;;;;;;;;;9.38;100.00;99447.03;6256957;22;19923;-83
2022/11/19 13:03:50;;;;;;;;;;;;;;;9.33;100.00;99442.31;6258089;22;20278;-82
2022/11/19 13:06:24;;;;;;;;;;;;;;;9.40;100.00;99431.81;6280680;22;19911;-84
2022/11/19 13:08:54;;;;;;;;;;;;;;;9.36;100.00;99435.81;6277778;22;19911;-84
2022/11/19 13:11:23;;;;;;;;;;;;;;;9.41;100.00;99428.19;6277474;22;19978;-85
2022/11/19 13:13:58;;;;;;;;;;;;;;;9.43;100.00;99425.34;6277177;22;19917;-84
2022/11/19 13:16:24;;;;;;;;;;;;;;;9.62;100.00;99417.69;6277587;22;19911;-86